createdAt,value
2016-10-29T10:12:21.631Z,20.05
2016-10-29T10:12:47.172Z,20.09
2016-10-29T10:13:12.918Z,20.09
2016-10-29T10:13:38.469Z,20.09
2016-10-29T10:14:04.036Z,20.16
2016-10-29T10:14:29.601Z,20.21
2016-10-29T10:14:55.166Z,20.27
2016-10-29T10:15:20.725Z,20.2
2016-10-29T10:15:46.391Z,20.27
2016-10-29T10:16:11.949Z,20.23
2016-10-29T10:16:37.519Z,20.27
2016-10-29T10:17:03.091Z,20.38
2016-10-29T10:17:28.665Z,20.35
2016-10-29T10:17:54.203Z,20.39
2016-10-29T10:18:19.766Z,20.43
2016-10-29T10:18:45.323Z,20.39
2016-10-29T10:19:10.930Z,20.43
2016-10-29T10:19:36.541Z,20.41
2016-10-29T10:20:02.086Z,20.58
2016-10-29T10:20:27.652Z,20.59
2016-10-29T10:20:53.256Z,20.59
2016-10-29T10:21:18.792Z,20.56
2016-10-29T10:21:44.358Z,20.59
2016-10-29T10:22:09.928Z,20.61
2016-10-29T10:22:35.485Z,20.64
2016-10-29T10:23:01.043Z,20.61
2016-10-29T10:23:26.733Z,20.71
2016-10-29T10:23:52.294Z,20.62
2016-10-29T10:24:17.877Z,20.68
2016-10-29T10:24:43.542Z,20.69
2016-10-29T10:25:09.096Z,20.66
2016-10-29T10:25:34.733Z,20.71
2016-10-29T10:26:00.399Z,20.68
2016-10-29T10:26:26.012Z,20.71
2016-10-29T10:26:51.584Z,20.66
2016-10-29T10:27:17.161Z,20.71
2016-10-29T10:27:42.776Z,20.72
2016-10-29T10:28:08.326Z,20.74
2016-10-29T10:28:33.905Z,20.81
2016-10-29T10:28:59.535Z,20.89
2016-10-29T10:29:25.093Z,20.86
2016-10-29T10:29:50.639Z,20.81
2016-10-29T10:30:16.210Z,20.86
2016-10-29T10:30:41.790Z,20.89
2016-10-29T10:31:07.358Z,20.86
2016-10-29T10:31:32.959Z,20.89
2016-10-29T10:31:58.511Z,20.84
2016-10-29T10:32:24.090Z,20.9
2016-10-29T10:33:22.599Z,20.9
2016-10-29T10:33:48.161Z,20.89
2016-10-29T10:34:13.842Z,20.9
2016-10-29T10:34:39.384Z,20.91
2016-10-29T10:35:04.985Z,20.89
2016-10-29T10:35:30.555Z,21.04
2016-10-29T10:35:56.176Z,20.99
2016-10-29T10:36:21.731Z,21.04
2016-10-29T10:36:47.284Z,21.02
2016-10-29T10:37:12.891Z,21.04
2016-10-29T10:37:38.416Z,21.09
2016-10-29T10:38:04.033Z,21.04
2016-10-29T10:38:29.595Z,21.08
2016-10-29T10:38:55.144Z,21.16
2016-10-29T10:39:20.712Z,21.11
2016-10-29T10:39:46.293Z,21.13
2016-10-29T10:40:11.863Z,21.19
2016-10-29T10:40:37.462Z,21.21
2016-10-29T10:41:03.142Z,21.2
2016-10-29T10:41:28.711Z,21.26
2016-10-29T10:41:54.278Z,21.2
2016-10-29T10:42:19.847Z,21.21
2016-10-29T10:42:45.434Z,21.23
2016-10-29T10:43:10.982Z,21.29
2016-10-29T10:43:36.633Z,21.32
2016-10-29T10:44:02.139Z,21.35
2016-10-29T10:44:27.696Z,21.29
2016-10-29T10:44:53.426Z,21.3
2016-10-29T10:45:18.992Z,21.27
2016-10-29T10:45:44.560Z,21.27
2016-10-29T10:46:10.225Z,21.34
2016-10-29T10:46:35.790Z,21.3
2016-10-29T10:47:01.358Z,21.29
2016-10-29T10:47:26.902Z,21.26
2016-10-29T10:47:52.607Z,21.26
2016-10-29T10:48:18.174Z,21.24
2016-10-29T10:48:43.736Z,21.29
2016-10-29T10:49:09.319Z,21.27
2016-10-29T10:49:34.881Z,21.19
2016-10-29T10:50:00.458Z,21.26
2016-10-29T10:50:26.008Z,21.21
2016-10-29T10:50:51.574Z,21.24
2016-10-29T10:51:17.158Z,21.21
2016-10-29T10:51:42.755Z,21.17
2016-10-29T10:52:08.331Z,21.17
2016-10-29T10:52:33.946Z,21.13
2016-10-29T10:52:59.506Z,21.16
2016-10-29T10:53:25.073Z,21.16
2016-10-29T10:53:50.631Z,21.21
2016-10-29T10:54:16.198Z,21.19
2016-10-29T10:54:41.784Z,21.13
2016-10-29T10:55:07.333Z,21.19
2016-10-29T10:55:32.927Z,21.16
2016-10-29T10:55:58.488Z,21.24
2016-10-29T10:56:24.183Z,21.16
2016-10-29T10:56:49.772Z,21.2
2016-10-29T10:57:15.316Z,21.26
2016-10-29T10:57:40.878Z,21.27
2016-10-29T10:58:06.448Z,21.23
2016-10-29T10:58:31.993Z,21.3
2016-10-29T10:58:57.558Z,21.27
2016-10-29T10:59:23.101Z,21.32
2016-10-29T10:59:48.673Z,21.3
2016-10-29T11:00:14.261Z,21.38
2016-10-29T11:00:39.816Z,21.38
2016-10-29T11:01:05.404Z,21.41
2016-10-29T11:01:30.972Z,21.42
2016-10-29T11:01:56.574Z,21.38
2016-10-29T11:02:22.143Z,21.46
2016-10-29T11:02:47.717Z,21.5
2016-10-29T11:03:13.452Z,21.45
2016-10-29T11:03:39.009Z,21.48
2016-10-29T11:04:04.591Z,21.5
2016-10-29T11:04:30.142Z,21.48
2016-10-29T11:04:55.714Z,21.53
2016-10-29T11:05:21.296Z,21.51
2016-10-29T11:05:46.882Z,21.56
2016-10-29T11:06:12.457Z,21.63
2016-10-29T11:06:38.033Z,21.51
2016-10-29T11:07:03.583Z,21.64
2016-10-29T11:07:29.162Z,21.57
2016-10-29T11:07:54.710Z,21.59
2016-10-29T11:08:20.267Z,21.59
2016-10-29T11:08:45.871Z,21.57
2016-10-29T11:09:11.438Z,21.57
2016-10-29T11:09:37.020Z,21.61
2016-10-29T11:10:02.560Z,21.61
2016-10-29T11:10:28.116Z,21.64
2016-10-29T11:10:53.783Z,21.59
2016-10-29T11:11:19.340Z,21.6
2016-10-29T11:11:44.913Z,21.51
2016-10-29T11:12:10.467Z,21.5
2016-10-29T11:12:36.039Z,21.54
2016-10-29T11:13:01.604Z,21.46
2016-10-29T11:13:27.201Z,21.54
2016-10-29T11:13:52.777Z,21.46
2016-10-29T11:14:18.384Z,21.48
2016-10-29T11:14:43.944Z,21.45
2016-10-29T11:15:09.499Z,21.39
2016-10-29T11:15:35.970Z,21.42
2016-10-29T11:16:00.667Z,21.46
2016-10-29T11:16:26.215Z,21.41
2016-10-29T11:16:51.787Z,21.44
2016-10-29T11:17:17.396Z,21.46
2016-10-29T11:17:42.959Z,21.41
2016-10-29T11:18:08.525Z,21.42
2016-10-29T11:18:34.076Z,21.39
2016-10-29T11:19:42.742Z,21.5
2016-10-29T11:20:40.808Z,21.56
2016-10-29T11:21:06.378Z,21.54
2016-10-29T11:21:31.954Z,21.56
2016-10-29T11:21:57.573Z,21.48
2016-10-29T11:22:23.131Z,21.61
2016-10-29T11:22:48.694Z,21.61
2016-10-29T11:23:14.305Z,21.61
2016-10-29T11:23:39.854Z,21.6
2016-10-29T11:24:05.431Z,21.63
2016-10-29T11:24:31.010Z,21.59
2016-10-29T11:24:56.556Z,21.57
2016-10-29T11:25:22.119Z,21.57
2016-10-29T11:25:47.733Z,21.6
2016-10-29T11:26:13.295Z,21.6
2016-10-29T11:26:38.842Z,21.6
2016-10-29T11:27:04.402Z,21.64
2016-10-29T11:27:29.940Z,21.63
2016-10-29T11:27:55.527Z,21.67
2016-10-29T11:28:21.099Z,21.69
2016-10-29T11:28:46.653Z,21.72
2016-10-29T11:29:12.222Z,21.67
2016-10-29T11:29:37.780Z,21.74
2016-10-29T11:30:03.332Z,21.69
2016-10-29T11:30:28.916Z,21.64
2016-10-29T11:30:54.452Z,21.67
2016-10-29T11:31:20.081Z,21.63
2016-10-29T11:31:45.678Z,21.64
2016-10-29T11:32:11.237Z,21.67
2016-10-29T11:32:36.803Z,21.72
2016-10-29T11:33:02.496Z,21.67
2016-10-29T11:33:28.039Z,21.6
2016-10-29T11:33:53.648Z,21.67
2016-10-29T11:34:19.199Z,21.69
2016-10-29T11:34:44.778Z,21.67
2016-10-29T11:35:10.341Z,21.6
2016-10-29T11:35:35.902Z,21.59
2016-10-29T11:36:01.520Z,21.57
2016-10-29T11:36:27.079Z,21.57
2016-10-29T11:36:52.696Z,21.66
2016-10-29T11:37:18.254Z,21.6
2016-10-29T11:37:43.814Z,21.57
2016-10-29T11:38:09.400Z,21.59
2016-10-29T11:39:17.762Z,21.61
2016-10-29T11:39:43.312Z,21.61
2016-10-29T11:40:08.873Z,21.46
2016-10-29T11:40:34.475Z,21.54
2016-10-29T11:41:00.038Z,21.53
2016-10-29T11:41:25.614Z,21.5
2016-10-29T11:41:51.186Z,21.45
2016-10-29T11:42:16.735Z,21.51
2016-10-29T11:42:42.279Z,21.51
2016-10-29T11:43:07.828Z,21.5
2016-10-29T11:43:33.394Z,21.51
2016-10-29T11:43:58.943Z,21.34
2016-10-29T11:44:24.513Z,21.44
2016-10-29T11:44:50.077Z,21.44
2016-10-29T11:45:15.639Z,21.46
2016-10-29T11:45:41.204Z,21.44
2016-10-29T11:46:06.786Z,21.41
2016-10-29T11:46:32.343Z,21.39
2016-10-29T11:46:58.019Z,21.38
2016-10-29T11:47:23.573Z,21.36
2016-10-29T11:47:49.253Z,21.35
2016-10-29T11:48:14.801Z,21.36
2016-10-29T11:48:40.379Z,21.35
2016-10-29T11:49:05.930Z,21.3
2016-10-29T11:49:31.517Z,21.29
2016-10-29T11:49:57.073Z,21.32
2016-10-29T11:50:22.616Z,21.27
2016-10-29T11:50:48.167Z,21.3
2016-10-29T11:51:13.725Z,21.34
2016-10-29T11:51:39.333Z,21.34
2016-10-29T11:52:04.957Z,21.3
2016-10-29T11:52:30.503Z,21.23
2016-10-29T11:52:56.044Z,21.29
2016-10-29T11:53:21.628Z,21.24
2016-10-29T11:53:47.182Z,21.3
2016-10-29T11:54:12.800Z,21.3
2016-10-29T11:54:38.364Z,21.3
2016-10-29T11:55:03.974Z,21.26
2016-10-29T11:55:29.564Z,21.24
2016-10-29T11:55:55.125Z,21.2
2016-10-29T11:56:20.687Z,21.21
2016-10-29T11:56:46.248Z,21.24
2016-10-29T11:57:11.826Z,21.19
2016-10-29T11:57:37.405Z,21.14
2016-10-29T11:58:02.957Z,21.21
2016-10-29T11:58:28.541Z,21.17
2016-10-29T11:58:54.215Z,21.17
2016-10-29T11:59:19.778Z,21.14
2016-10-29T11:59:45.360Z,21.16
2016-10-29T12:00:10.942Z,21.19
2016-10-29T12:00:36.589Z,21.19
2016-10-29T12:01:02.125Z,21.16
2016-10-29T12:01:27.714Z,21.14
2016-10-29T12:01:53.258Z,21.16
2016-10-29T12:02:18.821Z,21.21
2016-10-29T12:02:44.383Z,21.19
2016-10-29T12:03:09.941Z,21.14
2016-10-29T12:03:35.508Z,21.2
2016-10-29T12:04:01.099Z,21.17
2016-10-29T12:04:26.670Z,21.13
2016-10-29T12:04:52.265Z,21.2
2016-10-29T12:05:17.828Z,21.2
2016-10-29T12:05:43.381Z,21.17
2016-10-29T12:06:08.929Z,21.16
2016-10-29T12:06:34.479Z,21.2
2016-10-29T12:07:00.062Z,21.17
2016-10-29T12:07:25.624Z,21.2
2016-10-29T12:07:51.285Z,21.17
2016-10-29T12:08:16.858Z,21.14
2016-10-29T12:08:42.549Z,21.14
2016-10-29T12:09:08.104Z,21.2
2016-10-29T12:09:33.689Z,21.17
2016-10-29T12:09:59.260Z,21.24
2016-10-29T12:10:24.815Z,21.17
2016-10-29T12:10:50.521Z,21.23
2016-10-29T12:11:16.087Z,21.21
2016-10-29T12:11:41.662Z,21.14
2016-10-29T12:12:07.331Z,21.16
2016-10-29T12:12:32.964Z,21.16
2016-10-29T12:12:58.522Z,21.17
2016-10-29T12:13:24.169Z,21.19
2016-10-29T12:13:49.752Z,21.21
2016-10-29T12:14:15.334Z,21.17
2016-10-29T12:14:40.911Z,21.11
2016-10-29T12:15:06.547Z,21.19
2016-10-29T12:15:32.122Z,21.11
2016-10-29T12:15:57.694Z,21.19
2016-10-29T12:16:23.321Z,21.14
2016-10-29T12:16:48.926Z,21.17
2016-10-29T12:17:14.491Z,21.17
2016-10-29T12:17:40.147Z,21.2
2016-10-29T12:18:05.721Z,21.21
2016-10-29T12:18:31.311Z,21.23
2016-10-29T12:18:56.846Z,21.24
2016-10-29T12:19:22.435Z,21.2
2016-10-29T12:19:47.977Z,21.27
2016-10-29T12:20:13.524Z,21.29
2016-10-29T12:20:39.072Z,21.26
2016-10-29T12:21:04.625Z,21.26
2016-10-29T12:21:30.305Z,21.29
2016-10-29T12:22:28.456Z,21.23
2016-10-29T12:22:54.038Z,21.34
2016-10-29T12:23:19.629Z,21.29
2016-10-29T12:23:45.184Z,21.3
2016-10-29T12:24:10.733Z,21.35
2016-10-29T12:24:36.320Z,21.34
2016-10-29T12:25:01.892Z,21.35
2016-10-29T12:25:27.530Z,21.24
2016-10-29T12:25:53.088Z,21.29
2016-10-29T12:26:18.644Z,21.3
2016-10-29T12:26:44.199Z,21.34
2016-10-29T12:27:09.873Z,21.34
2016-10-29T12:27:35.423Z,21.29
2016-10-29T12:28:00.991Z,21.27
2016-10-29T12:28:26.543Z,21.27
2016-10-29T12:28:52.100Z,21.32
2016-10-29T12:29:17.709Z,21.3
2016-10-29T12:29:43.273Z,21.27
2016-10-29T12:30:08.869Z,21.24
2016-10-29T12:30:34.537Z,21.27
2016-10-29T12:31:00.103Z,21.27
2016-10-29T12:31:25.679Z,21.34
2016-10-29T12:31:51.377Z,21.3
2016-10-29T12:32:16.928Z,21.32
2016-10-29T12:32:42.485Z,21.26
2016-10-29T12:33:08.013Z,21.3
2016-10-29T12:33:33.610Z,21.3
2016-10-29T12:33:59.158Z,21.24
2016-10-29T12:34:24.746Z,21.29
2016-10-29T12:34:50.283Z,21.27
2016-10-29T12:35:15.829Z,21.24
2016-10-29T12:35:41.370Z,21.24
2016-10-29T12:36:07.013Z,21.21
2016-10-29T12:36:32.581Z,21.27
2016-10-29T12:36:58.118Z,21.29
2016-10-29T12:37:23.672Z,21.2
2016-10-29T12:37:49.297Z,21.21
2016-10-29T12:38:14.922Z,21.16
2016-10-29T12:38:40.512Z,21.11
2016-10-29T12:39:06.113Z,21.13
2016-10-29T12:39:31.712Z,21.08
2016-10-29T12:39:57.274Z,21.11
2016-10-29T12:40:22.853Z,21.16
2016-10-29T12:40:48.497Z,21.16
2016-10-29T12:41:14.048Z,21.17
2016-10-29T12:41:39.605Z,21.19
2016-10-29T12:42:05.176Z,21.13
2016-10-29T12:42:30.720Z,21.16
2016-10-29T12:42:56.292Z,21.13
2016-10-29T12:43:21.856Z,21.2
2016-10-29T12:43:47.415Z,21.17
2016-10-29T12:44:12.995Z,21.21
2016-10-29T12:44:38.703Z,21.16
2016-10-29T12:45:04.260Z,21.16
2016-10-29T12:45:29.814Z,21.14
2016-10-29T12:45:55.358Z,21.16
2016-10-29T12:46:20.922Z,21.16
2016-10-29T12:46:46.487Z,21.21
2016-10-29T12:47:12.055Z,21.14
2016-10-29T12:47:37.608Z,21.19
2016-10-29T12:48:03.189Z,21.16
2016-10-29T12:48:28.853Z,21.11
2016-10-29T12:48:54.426Z,21.16
2016-10-29T12:49:19.973Z,21.23
2016-10-29T12:49:45.555Z,21.2
2016-10-29T12:50:11.189Z,21.17
2016-10-29T12:50:36.762Z,21.21
2016-10-29T12:51:02.321Z,21.24
2016-10-29T12:51:27.885Z,21.27
2016-10-29T12:51:53.441Z,21.26
2016-10-29T12:52:18.993Z,21.27
2016-10-29T12:52:44.538Z,21.26
2016-10-29T12:53:10.200Z,21.3
2016-10-29T12:53:35.857Z,21.26
2016-10-29T12:54:01.430Z,21.23
2016-10-29T12:54:27.017Z,21.26
2016-10-29T12:54:52.570Z,21.24
2016-10-29T12:55:18.122Z,21.3
2016-10-29T12:55:43.781Z,21.26
2016-10-29T12:56:09.347Z,21.21
2016-10-29T12:56:34.911Z,21.29
2016-10-29T12:57:00.506Z,21.35
2016-10-29T12:57:26.080Z,21.21
2016-10-29T12:57:51.671Z,21.24
2016-10-29T12:58:17.223Z,21.29
2016-10-29T12:58:42.791Z,21.27
2016-10-29T12:59:08.380Z,21.24
2016-10-29T12:59:33.936Z,21.26
2016-10-29T12:59:59.483Z,21.29
2016-10-29T13:00:25.042Z,21.24
2016-10-29T13:00:50.600Z,21.24
2016-10-29T13:01:17.154Z,21.26
2016-10-29T13:01:41.770Z,21.23
2016-10-29T13:02:07.322Z,21.26
2016-10-29T13:02:32.962Z,21.24
2016-10-29T13:02:58.511Z,21.24
2016-10-29T13:03:24.080Z,21.23
2016-10-29T13:03:49.638Z,21.23
2016-10-29T13:04:15.188Z,21.23
2016-10-29T13:04:40.746Z,21.26
2016-10-29T13:05:06.291Z,21.23
2016-10-29T13:05:31.914Z,21.24
2016-10-29T13:05:57.549Z,21.21
2016-10-29T13:06:23.127Z,21.2
2016-10-29T13:06:48.695Z,21.24
2016-10-29T13:07:14.279Z,21.24
2016-10-29T13:07:39.904Z,21.24
2016-10-29T13:08:05.463Z,21.24
2016-10-29T13:08:31.008Z,21.2
2016-10-29T13:08:56.719Z,21.24
2016-10-29T13:09:22.295Z,21.14
2016-10-29T13:09:47.863Z,21.2
2016-10-29T13:10:13.396Z,21.21
2016-10-29T13:10:38.963Z,21.11
2016-10-29T13:11:04.517Z,21.19
2016-10-29T13:11:30.066Z,21.14
2016-10-29T13:11:55.620Z,21.16
2016-10-29T13:12:21.214Z,21.13
2016-10-29T13:12:46.895Z,21.16
2016-10-29T13:13:12.467Z,21.19
2016-10-29T13:13:38.008Z,21.14
2016-10-29T13:14:03.571Z,21.16
2016-10-29T13:14:29.124Z,21.09
2016-10-29T13:14:54.698Z,21.09
2016-10-29T13:15:20.264Z,21.08
2016-10-29T13:15:45.827Z,21.14
2016-10-29T13:16:11.372Z,21.14
2016-10-29T13:16:36.933Z,21.13
2016-10-29T13:17:02.494Z,21.14
2016-10-29T13:17:28.052Z,21.13
2016-10-29T13:17:53.622Z,21.13
2016-10-29T13:18:19.201Z,21.16
2016-10-29T13:18:44.808Z,21.09
2016-10-29T13:19:10.368Z,21.11
2016-10-29T13:19:35.945Z,21.11
2016-10-29T13:20:01.595Z,21.08
2016-10-29T13:20:27.206Z,21.09
2016-10-29T13:20:52.769Z,21.09
2016-10-29T13:21:18.365Z,21.08
2016-10-29T13:21:44.080Z,21.08
2016-10-29T13:22:09.631Z,21.13
2016-10-29T13:23:18.025Z,21.09
2016-10-29T13:23:43.576Z,21.11
2016-10-29T13:24:09.137Z,21.05
2016-10-29T13:24:34.681Z,21.06
2016-10-29T13:25:00.323Z,21.09
2016-10-29T13:25:25.926Z,21.17
2016-10-29T13:25:51.499Z,21.14
2016-10-29T13:26:17.068Z,21.08
2016-10-29T13:26:42.699Z,21.14
2016-10-29T13:27:08.273Z,21.11
2016-10-29T13:27:33.854Z,21.09
2016-10-29T13:27:59.412Z,21.09
2016-10-29T13:28:24.984Z,21.14
2016-10-29T13:28:50.556Z,21.17
2016-10-29T13:29:16.137Z,21.14
2016-10-29T13:29:41.693Z,21.08
2016-10-29T13:30:07.252Z,21.13
2016-10-29T13:30:32.800Z,21.14
2016-10-29T13:30:58.364Z,21.14
2016-10-29T13:31:23.959Z,21.19
2016-10-29T13:31:49.563Z,21.06
2016-10-29T13:32:15.149Z,21.13
2016-10-29T13:32:40.718Z,21.13
2016-10-29T13:33:06.276Z,21.09
2016-10-29T13:33:31.841Z,21.09
2016-10-29T13:33:57.435Z,21.09
2016-10-29T13:34:22.984Z,21.11
2016-10-29T13:34:48.529Z,21.17
2016-10-29T13:35:14.057Z,21.14
2016-10-29T13:35:39.694Z,21.17
2016-10-29T13:36:05.267Z,21.09
2016-10-29T13:36:30.833Z,21.19
2016-10-29T13:36:56.387Z,21.13
2016-10-29T13:37:21.963Z,21.13
2016-10-29T13:37:47.526Z,21.09
2016-10-29T13:38:13.083Z,21.16
2016-10-29T13:38:38.651Z,21.17
2016-10-29T13:39:04.203Z,21.2
2016-10-29T13:39:29.784Z,21.21
2016-10-29T13:39:55.402Z,21.2
2016-10-29T13:40:20.949Z,21.16
2016-10-29T13:40:46.532Z,21.26
2016-10-29T13:41:12.131Z,21.21
2016-10-29T13:41:37.774Z,21.17
2016-10-29T13:42:03.345Z,21.14
2016-10-29T13:42:28.937Z,21.13
2016-10-29T13:42:54.505Z,21.11
2016-10-29T13:43:20.051Z,21.14
2016-10-29T13:43:45.599Z,21.14
2016-10-29T13:44:11.195Z,21.24
2016-10-29T13:44:36.761Z,21.16
2016-10-29T13:45:02.318Z,21.21
2016-10-29T13:45:27.972Z,21.17
2016-10-29T13:45:53.545Z,21.23
2016-10-29T13:46:19.094Z,21.16
2016-10-29T13:46:44.741Z,21.2
2016-10-29T13:47:10.311Z,21.2
2016-10-29T13:47:35.846Z,21.08
2016-10-29T13:48:01.421Z,21.09
2016-10-29T13:48:26.998Z,21.09
2016-10-29T13:49:25.093Z,21.13
2016-10-29T13:49:51.021Z,21.11
2016-10-29T13:50:16.580Z,21.05
2016-10-29T13:50:42.148Z,21.08
2016-10-29T13:51:07.799Z,21.13
2016-10-29T13:51:33.382Z,21.01
2016-10-29T13:51:58.920Z,21.04
2016-10-29T13:52:24.469Z,21.11
2016-10-29T13:52:50.052Z,21.08
2016-10-29T13:53:15.657Z,21.08
2016-10-29T13:53:41.211Z,20.96
2016-10-29T13:54:06.776Z,21.08
2016-10-29T13:54:32.409Z,21.09
2016-10-29T13:54:57.975Z,21.04
2016-10-29T13:55:23.537Z,21.06
2016-10-29T13:55:49.096Z,21.05
2016-10-29T13:56:14.647Z,21.01
2016-10-29T13:56:40.208Z,21.05
2016-10-29T13:57:05.849Z,20.93
2016-10-29T13:57:31.401Z,20.98
2016-10-29T13:57:56.940Z,20.9
2016-10-29T13:58:22.574Z,21.02
2016-10-29T13:58:48.137Z,20.95
2016-10-29T13:59:13.691Z,20.89
2016-10-29T13:59:39.270Z,20.91
2016-10-29T14:00:04.822Z,20.93
2016-10-29T14:00:30.369Z,20.87
2016-10-29T14:00:55.914Z,20.86
2016-10-29T14:01:21.471Z,20.86
2016-10-29T14:02:19.615Z,20.93
2016-10-29T14:02:45.161Z,20.93
2016-10-29T14:03:10.860Z,20.9
2016-10-29T14:03:36.444Z,20.9
2016-10-29T14:04:02.048Z,20.93
2016-10-29T14:04:27.625Z,20.87
2016-10-29T14:04:53.197Z,20.95
2016-10-29T14:05:18.760Z,20.93
2016-10-29T14:05:44.389Z,20.93
2016-10-29T14:06:09.963Z,20.9
2016-10-29T14:06:35.521Z,20.93
2016-10-29T14:07:01.077Z,20.86
2016-10-29T14:07:26.652Z,20.93
2016-10-29T14:07:52.233Z,20.91
2016-10-29T14:08:17.825Z,20.86
2016-10-29T14:08:43.398Z,20.89
2016-10-29T14:09:08.960Z,20.81
2016-10-29T14:09:34.512Z,20.91
2016-10-29T14:10:00.080Z,20.9
2016-10-29T14:10:25.656Z,20.79
2016-10-29T14:10:51.232Z,20.89
2016-10-29T14:11:16.782Z,20.93
2016-10-29T14:11:42.362Z,20.87
2016-10-29T14:12:07.929Z,20.87
2016-10-29T14:12:33.487Z,20.86
2016-10-29T14:12:59.036Z,20.93
2016-10-29T14:13:24.659Z,20.83
2016-10-29T14:13:50.215Z,20.79
2016-10-29T14:14:15.780Z,20.89
2016-10-29T14:14:41.334Z,20.87
2016-10-29T14:15:06.896Z,20.84
2016-10-29T14:15:32.640Z,20.86
2016-10-29T14:15:58.169Z,20.86
2016-10-29T14:16:23.744Z,20.93
2016-10-29T14:16:49.300Z,20.83
2016-10-29T14:17:14.888Z,20.91
2016-10-29T14:17:40.441Z,20.87
2016-10-29T14:18:05.981Z,20.84
2016-10-29T14:18:31.590Z,20.86
2016-10-29T14:18:57.129Z,20.9
2016-10-29T14:19:22.715Z,20.9
2016-10-29T14:19:48.282Z,20.87
2016-10-29T14:20:13.841Z,20.87
2016-10-29T14:20:39.453Z,20.87
2016-10-29T14:21:05.050Z,20.87
2016-10-29T14:21:30.635Z,20.84
2016-10-29T14:21:56.202Z,20.86
2016-10-29T14:22:21.847Z,20.89
2016-10-29T14:22:47.422Z,20.9
2016-10-29T14:23:12.996Z,20.87
2016-10-29T14:23:38.566Z,20.84
2016-10-29T14:24:04.165Z,20.93
2016-10-29T14:24:29.718Z,20.86
2016-10-29T14:24:55.262Z,20.81
2016-10-29T14:25:20.842Z,20.84
2016-10-29T14:25:46.452Z,20.9
2016-10-29T14:26:11.997Z,20.87
2016-10-29T14:26:37.557Z,20.86
2016-10-29T14:27:03.133Z,20.89
2016-10-29T14:27:28.689Z,20.83
2016-10-29T14:27:54.215Z,20.91
2016-10-29T14:28:19.807Z,20.86
2016-10-29T14:28:45.384Z,20.96
2016-10-29T14:29:10.949Z,20.87
2016-10-29T14:29:36.485Z,20.87
2016-10-29T14:30:02.060Z,20.93
2016-10-29T14:30:27.623Z,20.89
2016-10-29T14:30:53.212Z,21.04
2016-10-29T14:31:18.784Z,21.02
2016-10-29T14:31:44.404Z,20.96
2016-10-29T14:32:09.950Z,20.95
2016-10-29T14:32:35.501Z,20.9
2016-10-29T14:33:01.213Z,20.86
2016-10-29T14:33:26.828Z,20.91
2016-10-29T14:33:52.483Z,20.89
2016-10-29T14:34:18.042Z,20.93
2016-10-29T14:34:43.608Z,20.9
2016-10-29T14:35:09.174Z,20.87
2016-10-29T14:35:34.776Z,20.93
2016-10-29T14:36:00.336Z,20.93
2016-10-29T14:36:26.038Z,20.9
2016-10-29T14:36:51.611Z,20.9
2016-10-29T14:37:17.162Z,20.81
2016-10-29T14:37:42.807Z,20.93
2016-10-29T14:38:08.434Z,20.93
2016-10-29T14:38:34.008Z,20.9
2016-10-29T14:38:59.577Z,20.91
2016-10-29T14:39:25.101Z,20.91
2016-10-29T14:39:50.688Z,20.84
2016-10-29T14:40:16.258Z,20.9
2016-10-29T14:40:41.809Z,20.9
2016-10-29T14:41:07.547Z,20.95
2016-10-29T14:41:33.112Z,20.83
2016-10-29T14:41:58.693Z,20.93
2016-10-29T14:42:46.559Z,20.93
2016-10-29T14:43:34.385Z,20.89
2016-10-29T14:43:59.979Z,21.02
2016-10-29T14:44:25.529Z,20.96
2016-10-29T14:44:51.153Z,21.05
2016-10-29T14:45:16.736Z,20.98
2016-10-29T14:45:42.272Z,21.08
2016-10-29T14:46:07.845Z,21.05
2016-10-29T14:46:33.429Z,21.09
2016-10-29T14:46:58.971Z,21.08
2016-10-29T14:47:24.522Z,21.17
2016-10-29T14:47:50.094Z,21.11
2016-10-29T14:48:15.668Z,21.09
2016-10-29T14:48:41.220Z,21.21
2016-10-29T14:49:06.810Z,21.16
2016-10-29T14:49:32.400Z,21.19
2016-10-29T14:49:57.976Z,21.17
2016-10-29T14:50:23.535Z,21.29
2016-10-29T14:50:49.162Z,21.27
2016-10-29T14:51:14.805Z,21.27
2016-10-29T14:51:40.369Z,21.3
2016-10-29T14:52:05.935Z,21.26
2016-10-29T14:52:31.572Z,21.29
2016-10-29T14:52:57.346Z,21.36
2016-10-29T14:53:22.990Z,21.35
2016-10-29T14:53:48.594Z,21.38
2016-10-29T14:54:14.421Z,21.35
2016-10-29T14:54:39.831Z,21.42
2016-10-29T14:55:05.478Z,21.46
2016-10-29T14:55:31.033Z,21.45
2016-10-29T14:55:56.580Z,21.35
2016-10-29T14:56:22.203Z,21.44
2016-10-29T14:56:47.756Z,21.45
2016-10-29T14:57:13.444Z,21.45
2016-10-29T14:57:39.045Z,21.46
2016-10-29T14:58:04.614Z,21.5
2016-10-29T14:58:30.176Z,21.51
2016-10-29T14:58:55.841Z,21.53
2016-10-29T14:59:21.389Z,21.45
2016-10-29T14:59:46.944Z,21.57
2016-10-29T15:00:12.538Z,21.51
2016-10-29T15:00:38.120Z,21.53
2016-10-29T15:01:03.680Z,21.57
2016-10-29T15:01:29.269Z,21.56
2016-10-29T15:01:54.834Z,21.53
2016-10-29T15:02:20.385Z,21.63
2016-10-29T15:02:45.933Z,21.6
2016-10-29T15:03:11.521Z,21.59
2016-10-29T15:03:37.093Z,21.57
2016-10-29T15:04:02.785Z,21.61
2016-10-29T15:04:28.349Z,21.6
2016-10-29T15:04:53.901Z,21.54
2016-10-29T15:05:19.502Z,21.61
2016-10-29T15:05:45.066Z,21.63
2016-10-29T15:06:10.636Z,21.63
2016-10-29T15:06:36.185Z,21.57
2016-10-29T15:07:01.800Z,21.63
2016-10-29T15:07:27.367Z,21.6
2016-10-29T15:07:53.005Z,21.57
2016-10-29T15:08:18.581Z,21.57
2016-10-29T15:08:44.149Z,21.61
2016-10-29T15:09:09.779Z,21.51
2016-10-29T15:09:35.421Z,21.61
2016-10-29T15:10:00.975Z,21.59
2016-10-29T15:10:26.526Z,21.6
2016-10-29T15:10:52.143Z,21.61
2016-10-29T15:11:17.901Z,21.59
2016-10-29T15:11:43.475Z,21.66
2016-10-29T15:12:09.032Z,21.59
2016-10-29T15:12:34.564Z,21.63
2016-10-29T15:13:00.135Z,21.59
2016-10-29T15:13:25.705Z,21.53
2016-10-29T15:13:51.269Z,21.57
2016-10-29T15:14:16.825Z,21.51
2016-10-29T15:14:42.418Z,21.53
2016-10-29T15:15:08.091Z,21.48
2016-10-29T15:15:33.671Z,21.51
2016-10-29T15:15:59.242Z,21.48
2016-10-29T15:16:24.812Z,21.5
2016-10-29T15:16:50.393Z,21.51
2016-10-29T15:17:15.940Z,21.45
2016-10-29T15:17:41.542Z,21.53
2016-10-29T15:18:07.119Z,21.46
2016-10-29T15:18:32.922Z,21.5
2016-10-29T15:18:58.568Z,21.48
2016-10-29T15:19:24.199Z,21.39
2016-10-29T15:19:49.749Z,21.35
2016-10-29T15:20:15.451Z,21.44
2016-10-29T15:20:41.028Z,21.46
2016-10-29T15:21:06.603Z,21.42
2016-10-29T15:21:32.179Z,21.41
2016-10-29T15:21:57.742Z,21.45
2016-10-29T15:22:23.309Z,21.41
2016-10-29T15:22:48.881Z,21.41
2016-10-29T15:23:14.428Z,21.36
2016-10-29T15:23:40.002Z,21.36
2016-10-29T15:24:05.638Z,21.36
2016-10-29T15:24:31.220Z,21.35
2016-10-29T15:24:56.809Z,21.32
2016-10-29T15:25:22.403Z,21.34
2016-10-29T15:25:47.975Z,21.3
2016-10-29T15:26:13.522Z,21.24
2016-10-29T15:26:39.072Z,21.29
2016-10-29T15:27:05.237Z,21.23
2016-10-29T15:27:30.790Z,21.32
2016-10-29T15:27:56.337Z,21.29
2016-10-29T15:28:21.883Z,21.3
2016-10-29T15:28:47.502Z,21.23
2016-10-29T15:29:13.100Z,21.19
2016-10-29T15:29:38.663Z,21.26
2016-10-29T15:30:04.228Z,21.2
2016-10-29T15:30:29.955Z,21.14
2016-10-29T15:30:55.546Z,21.19
2016-10-29T15:31:21.108Z,21.14
2016-10-29T15:31:46.703Z,21.14
2016-10-29T15:32:12.263Z,21.16
2016-10-29T15:32:37.820Z,21.2
2016-10-29T15:33:03.512Z,21.09
2016-10-29T15:33:29.087Z,21.08
2016-10-29T15:33:54.635Z,21.13
2016-10-29T15:34:20.197Z,21.11
2016-10-29T15:34:45.798Z,21.09
2016-10-29T15:35:11.372Z,21.14
2016-10-29T15:35:36.931Z,21.08
2016-10-29T15:36:02.526Z,21.02
2016-10-29T15:36:28.110Z,21.04
2016-10-29T15:36:53.680Z,21.04
2016-10-29T15:37:19.261Z,21.06
2016-10-29T15:38:27.567Z,21.06
2016-10-29T15:38:53.126Z,21.06
2016-10-29T15:39:18.777Z,20.99
2016-10-29T15:39:44.326Z,21.06
2016-10-29T15:40:09.899Z,20.99
2016-10-29T15:40:35.537Z,20.9
2016-10-29T15:41:01.119Z,21.01
2016-10-29T15:41:26.670Z,20.93
2016-10-29T15:41:52.228Z,20.9
2016-10-29T15:42:17.813Z,20.89
2016-10-29T15:42:43.361Z,20.95
2016-10-29T15:43:08.944Z,20.91
2016-10-29T15:43:34.937Z,20.84
2016-10-29T15:44:01.717Z,20.86
2016-10-29T15:44:27.295Z,20.9
2016-10-29T15:44:52.888Z,20.86
2016-10-29T15:45:18.580Z,20.89
2016-10-29T15:45:44.261Z,20.91
2016-10-29T15:46:09.813Z,20.86
2016-10-29T15:46:35.387Z,20.84
2016-10-29T15:47:00.970Z,20.9
2016-10-29T15:47:26.763Z,20.84
2016-10-29T15:47:52.274Z,20.91
2016-10-29T15:48:17.898Z,20.9
2016-10-29T15:48:43.463Z,20.9
2016-10-29T15:49:09.013Z,20.87